Wednesday, October 22, 2014, 2:22 AM EDT

KEZF, Fredericksburg, Shannon Airport

Location: Fredericksburg, VA, United States Lat: 38.267
Local Time: 2:22 AM EDT ( 6:22 GMT) Lon: -77.45
Time Zone: US/Eastern Elev: 85 ft

Show me the last for .
Show Decoded

2014-10-22 01:55 METAR KEZF 220555Z AUTO 30004KT 10SM BKN070 12/12 A2988 RMK AO2 60002 T01150115
                 10132 20112 402260109 =
2014-10-22 01:35 METAR KEZF 220535Z AUTO 00000KT 10SM SCT070 11/11 A2988 RMK AO2 T01130113 =
2014-10-22 01:15 METAR KEZF 220515Z AUTO 00000KT 10SM OVC070 12/12 A2988 RMK AO2 T01150115 =
2014-10-22 00:55 METAR KEZF 220455Z AUTO 31004KT 10SM SCT070 11/11 A2989 RMK AO2 P0001 T01120112
                 =
2014-10-22 00:35 METAR KEZF 220435Z AUTO 00000KT 10SM CLR 12/12 A2989 RMK AO2 T01170116 =
2014-10-22 00:15 METAR KEZF 220415Z AUTO 34003KT 10SM CLR 12/12 A2990 RMK AO2 T01180117 =
2014-10-21 23:55 METAR KEZF 220355Z AUTO 00000KT 10SM CLR 12/12 A2990 RMK AO2 T01210118 =
2014-10-21 23:35 METAR KEZF 220335Z AUTO 32004KT 10SM SCT120 12/12 A2990 RMK AO2 T01210118 =
2014-10-21 23:15 METAR KEZF 220315Z AUTO 32003KT 10SM BKN120 12/12 A2991 RMK AO2 T01240119 =
2014-10-21 22:55 METAR KEZF 220255Z AUTO 33003KT 10SM SCT110 13/12 A2991 RMK AO2 60001 T01250122
                 =
2014-10-21 22:35 METAR KEZF 220235Z AUTO 32006KT 10SM BKN110 13/13 A2990 RMK AO2 T01250125 =
2014-10-21 22:15 METAR KEZF 220215Z AUTO 33003KT 10SM SCT110 13/13 A2990 RMK AO2 T01260126 =
2014-10-21 21:55 METAR KEZF 220155Z AUTO 33004KT 10SM BKN120 13/13 A2990 RMK AO2 T01270127 =
2014-10-21 21:35 METAR KEZF 220135Z AUTO 34004KT 10SM OVC110 13/13 A2990 RMK AO2 T01290129 =
2014-10-21 21:15 METAR KEZF 220115Z AUTO 36006KT 10SM -RA SCT090 OVC110 13/13 A2989 RMK AO2
                 T01300130 =
2014-10-21 20:55 METAR KEZF 220055Z AUTO 34003KT 10SM -DZ SCT055 SCT070 OVC090 13/13 A2989 RMK
                 AO2 P0001 T01300130 =
2014-10-21 20:35 METAR KEZF 220035Z AUTO 33004KT 10SM -RA BKN055 OVC070 13/13 A2989 RMK AO2 P0001
                 T01300130 =
2014-10-21 20:15 METAR KEZF 220015Z AUTO 35004KT 10SM -RA SCT055 OVC070 13/13 A2988 RMK AO2
                 T01320132 =
2014-10-21 19:55 METAR KEZF 212355Z AUTO 33005KT 10SM -RA SCT029 SCT038 OVC075 13/13 A2989 RMK
                 AO2 P0009 60009 T01320131 10226 20132 =
2014-10-21 19:35 METAR KEZF 212335Z AUTO 32006KT 4SM RA SCT021 BKN029 OVC042 13/13 A2988 RMK AO2
                 P0007 T01330130 =
2014-10-21 19:15 METAR KEZF 212315Z AUTO 26007KT 10SM +RA SCT021 OVC039 14/12 A2989 RMK AO2 P0001
                 T01390116 =
2014-10-21 18:55 METAR KEZF 212255Z AUTO 30010G17KT 10SM RA SCT037 BKN048 OVC075 15/12 A2986 RMK
                 AO2 T01460116 =
2014-10-21 18:35 METAR KEZF 212235Z AUTO 33009G19KT 10SM -RA SCT075 BKN085 OVC110 16/11 A2985 RMK
                 AO2 T01570110 =
2014-10-21 18:15 METAR KEZF 212215Z AUTO 33009G14KT 10SM SCT075 SCT110 17/11 A2983 RMK AO2
                 T01650113 =
2014-10-21 17:55 METAR KEZF 212155Z AUTO 33007KT 10SM SCT055 SCT075 SCT110 18/11 A2982 RMK AO2
                 T01750112 =
2014-10-21 17:35 METAR KEZF 212135Z AUTO 35007KT 10SM SCT055 BKN110 20/10 A2981 RMK AO2 T01960099
                 =
2014-10-21 17:15 METAR KEZF 212115Z AUTO 24006KT 10SM SCT070 OVC100 20/11 A2979 RMK AO2 T01990108
                 =
2014-10-21 16:55 METAR KEZF 212055Z AUTO 21004KT 10SM SCT055 BKN085 OVC110 21/10 A2979 RMK AO2
                 T02070104 =
2014-10-21 16:35 METAR KEZF 212035Z AUTO 00000KT 10SM OVC110 21/10 A2979 RMK AO2 T02110096 =
2014-10-21 16:15 METAR KEZF 212015Z AUTO 00000KT 10SM OVC110 21/09 A2978 RMK AO2 T02120091 =
2014-10-21 15:55 METAR KEZF 211955Z AUTO 00000KT 10SM BKN120 21/09 A2979 RMK AO2 T02120090 =
2014-10-21 15:35 METAR KEZF 211935Z AUTO 18005KT 10SM CLR 22/08 A2979 RMK AO2 T02180082 =
2014-10-21 15:15 METAR KEZF 211915Z AUTO 22005KT 10SM CLR 22/08 A2978 RMK AO2 T02220081 =
2014-10-21 14:55 METAR KEZF 211855Z AUTO 11005KT 10SM BKN055 22/08 A2979 RMK AO2 T02210083 =
2014-10-21 14:35 METAR KEZF 211835Z AUTO 00000KT 10SM OVC055 22/08 A2980 RMK AO2 T02150078 =
2014-10-21 14:15 METAR KEZF 211815Z AUTO 00000KT 10SM SCT055 BKN065 22/08 A2981 RMK AO2 T02210078
                 =
2014-10-21 13:55 METAR KEZF 211755Z AUTO 00000KT 10SM CLR 22/08 A2981 RMK AO2 T02160077 10220
                 20109 =
2014-10-21 13:35 METAR KEZF 211735Z AUTO 00000KT 10SM CLR 21/08 A2982 RMK AO2 T02140079 =
2014-10-21 13:15 METAR KEZF 211715Z AUTO 00000KT 10SM CLR 21/08 A2983 RMK AO2 T02110078 =
2014-10-21 12:55 METAR KEZF 211655Z AUTO 32005KT 10SM SCT050 21/08 A2984 RMK AO2 T02140079 =
2014-10-21 12:35 METAR KEZF 211635Z AUTO 00000KT 10SM CLR 21/09 A2984 RMK AO2 T02090090 =
2014-10-21 12:15 METAR KEZF 211615Z AUTO 35003KT 10SM CLR 21/09 A2985 RMK AO2 T02100088 =
2014-10-21 11:55 METAR KEZF 211555Z AUTO 30003KT 10SM CLR 21/10 A2986 RMK AO2 T02060095 =
2014-10-21 11:35 METAR KEZF 211535Z AUTO 00000KT 10SM CLR 20/10 A2986 RMK AO2 T02020102 =
2014-10-21 11:15 METAR KEZF 211515Z AUTO 00000KT 10SM CLR 19/10 A2986 RMK AO2 T01920103 =
2014-10-21 10:55 METAR KEZF 211455Z AUTO 00000KT 10SM SCT095 19/11 A2986 RMK AO2 T01880107 =
2014-10-21 10:30 METAR KEZF 211430Z AUTO 21003KT 10SM SCT095 SCT110 18/11 A2987 RMK AO2 T01840109
                 =
2014-10-21 10:15 METAR KEZF 211415Z AUTO 00000KT 10SM SCT095 18/11 A2988 RMK AO2 T01750108 =
2014-10-21 09:35 METAR KEZF 211335Z AUTO 00000KT 10SM CLR 15/11 A2988 RMK AO2 T01540107 =
2014-10-21 09:15 METAR KEZF 211315Z AUTO 00000KT 10SM CLR 14/11 A2988 RMK AO2 T01440108 =
2014-10-21 08:55 METAR KEZF 211255Z AUTO 00000KT 10SM CLR 14/11 A2988 RMK AO2 T01370106 =
2014-10-21 08:35 METAR KEZF 211235Z AUTO 00000KT 10SM CLR 13/12 A2988 RMK AO2 T01250115 =
2014-10-21 08:15 METAR KEZF 211215Z AUTO 00000KT 10SM CLR 11/11 A2987 RMK AO2 T01110107 =
2014-10-21 07:55 METAR KEZF 211155Z AUTO 00000KT 10SM CLR 12/11 A2987 RMK AO2 T01150105 10132
                 20115 =
2014-10-21 07:35 METAR KEZF 211135Z AUTO 00000KT 10SM BKN110 12/10 A2986 RMK AO2 T01190099 =
2014-10-21 07:15 METAR KEZF 211115Z AUTO 00000KT 10SM OVC120 13/10 A2986 RMK AO2 T01250100 =
2014-10-21 06:55 METAR KEZF 211055Z AUTO 00000KT 10SM OVC110 12/10 A2986 RMK AO2 T01210099 =
2014-10-21 06:35 METAR KEZF 211035Z AUTO 21003KT 10SM OVC110 13/10 A2986 RMK AO2 T01250097 =
2014-10-21 05:55 METAR KEZF 210955Z AUTO 00000KT 10SM SCT090 BKN110 12/10 A2986 RMK AO2 T01230100
                 =
2014-10-21 05:35 METAR KEZF 210935Z AUTO 00000KT 10SM OVC120 13/10 A2986 RMK AO2 T01250096 =
2014-10-21 05:15 METAR KEZF 210915Z AUTO 00000KT 10SM OVC110 13/09 A2987 RMK AO2 T01250094 =
2014-10-21 04:55 METAR KEZF 210855Z AUTO 00000KT 10SM OVC110 12/10 A2987 RMK AO2 T01240095 =
2014-10-21 04:35 METAR KEZF 210835Z AUTO 00000KT 10SM OVC110 13/09 A2987 RMK AO2 T01270091 =
2014-10-21 04:15 METAR KEZF 210815Z AUTO 00000KT 10SM SCT070 BKN110 13/09 A2987 RMK AO2 T01290091
                 =
2014-10-21 03:55 METAR KEZF 210755Z AUTO 23003KT 10SM SCT070 SCT100 SCT120 13/09 A2988 RMK AO2
                 T01250093 =
2014-10-21 03:35 METAR KEZF 210735Z AUTO 00000KT 10SM SCT100 BKN120 12/09 A2987 RMK AO2 T01220094
                 =
2014-10-21 03:15 METAR KEZF 210715Z AUTO 00000KT 10SM SCT120 12/09 A2988 RMK AO2 T01210092 =
2014-10-21 02:55 METAR KEZF 210655Z AUTO 00000KT 10SM CLR 13/09 A2989 RMK AO2 T01280089 =
2014-10-21 02:35 METAR KEZF 210635Z AUTO 00000KT 10SM CLR 13/09 A2989 RMK AO2 T01300090 =

Support USWX by starting your Amazon purchase here.